sensor_id;sensor_type;location;lat;lon;timestamp;pressure;altitude;pressure_sealevel;temperature;humidity
16793;BME280;8513;42.662;23.350;2024-02-28T00:01:52;95215.28;;;11.51;53.02
16793;BME280;8513;42.662;23.350;2024-02-28T00:04:18;95226.06;;;11.58;53.05
16793;BME280;8513;42.662;23.350;2024-02-28T00:06:44;95221.09;;;11.55;53.30
16793;BME280;8513;42.662;23.350;2024-02-28T00:09:12;95229.75;;;11.47;53.31
16793;BME280;8513;42.662;23.350;2024-02-28T00:11:45;95218.97;;;11.58;53.06
16793;BME280;8513;42.662;23.350;2024-02-28T00:14:11;95222.78;;;11.64;53.08
16793;BME280;8513;42.662;23.350;2024-02-28T00:16:41;95228.91;;;11.46;53.67
16793;BME280;8513;42.662;23.350;2024-02-28T00:19:07;95210.25;;;11.40;53.79
16793;BME280;8513;42.662;23.350;2024-02-28T00:21:32;95227.31;;;11.54;53.68
16793;BME280;8513;42.662;23.350;2024-02-28T00:23:58;95226.56;;;11.61;53.42
16793;BME280;8513;42.662;23.350;2024-02-28T00:26:23;95222.50;;;11.49;53.83
16793;BME280;8513;42.662;23.350;2024-02-28T00:28:48;95229.28;;;11.52;53.42
16793;BME280;8513;42.662;23.350;2024-02-28T00:31:14;95226.13;;;11.48;53.74
16793;BME280;8513;42.662;23.350;2024-02-28T00:33:39;95228.63;;;11.50;54.15
16793;BME280;8513;42.662;23.350;2024-02-28T00:36:05;95224.63;;;11.45;53.71
16793;BME280;8513;42.662;23.350;2024-02-28T00:38:30;95221.78;;;11.39;53.58
16793;BME280;8513;42.662;23.350;2024-02-28T00:40:56;95222.91;;;11.36;53.56
16793;BME280;8513;42.662;23.350;2024-02-28T00:43:21;95222.44;;;11.41;53.09
16793;BME280;8513;42.662;23.350;2024-02-28T00:45:47;95219.34;;;11.45;52.79
16793;BME280;8513;42.662;23.350;2024-02-28T00:48:12;95216.13;;;11.34;52.97
16793;BME280;8513;42.662;23.350;2024-02-28T00:50:37;95217.34;;;11.21;52.98
16793;BME280;8513;42.662;23.350;2024-02-28T00:53:03;95220.09;;;11.20;53.06
16793;BME280;8513;42.662;23.350;2024-02-28T00:55:29;95220.56;;;11.15;53.42
16793;BME280;8513;42.662;23.350;2024-02-28T00:57:54;95226.97;;;11.13;53.20
16793;BME280;8513;42.662;23.350;2024-02-28T01:00:19;95229.91;;;11.10;53.17
16793;BME280;8513;42.662;23.350;2024-02-28T01:02:45;95218.81;;;11.06;53.22
16793;BME280;8513;42.662;23.350;2024-02-28T01:05:10;95232.94;;;10.87;53.61
16793;BME280;8513;42.662;23.350;2024-02-28T01:07:36;95239.50;;;10.83;53.93
16793;BME280;8513;42.662;23.350;2024-02-28T01:10:02;95234.00;;;10.94;53.77
16793;BME280;8513;42.662;23.350;2024-02-28T01:12:27;95232.56;;;10.82;54.13
16793;BME280;8513;42.662;23.350;2024-02-28T01:14:53;95225.97;;;10.78;54.25
16793;BME280;8513;42.662;23.350;2024-02-28T01:17:19;95228.16;;;10.82;53.77
16793;BME280;8513;42.662;23.350;2024-02-28T01:19:44;95234.56;;;10.70;54.10
16793;BME280;8513;42.662;23.350;2024-02-28T01:22:10;95227.22;;;10.74;54.04
16793;BME280;8513;42.662;23.350;2024-02-28T01:24:35;95232.09;;;10.69;54.27
16793;BME280;8513;42.662;23.350;2024-02-28T01:27:02;95231.34;;;10.76;54.44
16793;BME280;8513;42.662;23.350;2024-02-28T01:29:28;95236.09;;;10.73;54.80
16793;BME280;8513;42.662;23.350;2024-02-28T01:31:55;95236.59;;;10.76;54.80
16793;BME280;8513;42.662;23.350;2024-02-28T01:34:20;95240.53;;;10.72;55.04
16793;BME280;8513;42.662;23.350;2024-02-28T01:36:45;95238.56;;;10.74;54.34
16793;BME280;8513;42.662;23.350;2024-02-28T01:39:11;95244.50;;;10.76;54.32
16793;BME280;8513;42.662;23.350;2024-02-28T01:41:36;95252.25;;;10.78;54.49
16793;BME280;8513;42.662;23.350;2024-02-28T01:44:01;95251.50;;;10.58;54.90
16793;BME280;8513;42.662;23.350;2024-02-28T01:46:27;95256.84;;;10.48;54.91
16793;BME280;8513;42.662;23.350;2024-02-28T01:48:54;95259.69;;;10.55;54.31
16793;BME280;8513;42.662;23.350;2024-02-28T01:51:22;95248.66;;;10.51;54.41
16793;BME280;8513;42.662;23.350;2024-02-28T01:53:48;95257.97;;;10.46;54.45
16793;BME280;8513;42.662;23.350;2024-02-28T01:56:15;95257.13;;;10.45;54.34
16793;BME280;8513;42.662;23.350;2024-02-28T01:58:43;95260.03;;;10.42;54.28
16793;BME280;8513;42.662;23.350;2024-02-28T02:01:13;95261.59;;;10.35;54.71
16793;BME280;8513;42.662;23.350;2024-02-28T02:03:38;95259.47;;;10.48;54.52
16793;BME280;8513;42.662;23.350;2024-02-28T02:06:04;95262.41;;;10.26;55.52
16793;BME280;8513;42.662;23.350;2024-02-28T02:08:30;95260.91;;;10.33;54.72
16793;BME280;8513;42.662;23.350;2024-02-28T02:10:56;95259.84;;;10.16;55.39
16793;BME280;8513;42.662;23.350;2024-02-28T02:13:23;95261.59;;;10.25;55.25
16793;BME280;8513;42.662;23.350;2024-02-28T02:15:48;95262.41;;;10.35;55.07
16793;BME280;8513;42.662;23.350;2024-02-28T02:18:13;95259.53;;;10.29;55.21
16793;BME280;8513;42.662;23.350;2024-02-28T02:20:43;95254.53;;;10.35;54.77
16793;BME280;8513;42.662;23.350;2024-02-28T02:23:11;95256.34;;;10.25;54.73
16793;BME280;8513;42.662;23.350;2024-02-28T02:25:47;95255.25;;;10.28;54.85
16793;BME280;8513;42.662;23.350;2024-02-28T02:28:13;95254.56;;;10.16;55.20
16793;BME280;8513;42.662;23.350;2024-02-28T02:30:40;95250.69;;;10.20;55.04
16793;BME280;8513;42.662;23.350;2024-02-28T02:33:07;95261.75;;;10.24;54.71
16793;BME280;8513;42.662;23.350;2024-02-28T02:35:33;95252.06;;;10.24;54.67
16793;BME280;8513;42.662;23.350;2024-02-28T02:37:58;95244.50;;;10.11;54.90
16793;BME280;8513;42.662;23.350;2024-02-28T02:40:24;95248.22;;;10.09;55.27
16793;BME280;8513;42.662;23.350;2024-02-28T02:42:49;95251.84;;;10.08;55.14
16793;BME280;8513;42.662;23.350;2024-02-28T02:45:16;95257.53;;;9.93;55.65
16793;BME280;8513;42.662;23.350;2024-02-28T02:47:41;95258.63;;;10.01;55.34
16793;BME280;8513;42.662;23.350;2024-02-28T02:50:09;95260.44;;;9.90;55.84
16793;BME280;8513;42.662;23.350;2024-02-28T02:52:34;95264.59;;;9.93;55.51
16793;BME280;8513;42.662;23.350;2024-02-28T02:55:00;95260.31;;;9.92;55.34
16793;BME280;8513;42.662;23.350;2024-02-28T02:57:25;95260.06;;;9.66;56.22
16793;BME280;8513;42.662;23.350;2024-02-28T02:59:50;95256.59;;;9.75;55.88
16793;BME280;8513;42.662;23.350;2024-02-28T03:02:16;95257.16;;;9.79;55.60
16793;BME280;8513;42.662;23.350;2024-02-28T03:04:41;95255.53;;;9.58;55.85
16793;BME280;8513;42.662;23.350;2024-02-28T03:07:07;95261.31;;;9.71;55.61
16793;BME280;8513;42.662;23.350;2024-02-28T03:09:33;95256.06;;;9.62;56.26
16793;BME280;8513;42.662;23.350;2024-02-28T03:11:59;95261.03;;;9.75;55.83
16793;BME280;8513;42.662;23.350;2024-02-28T03:14:25;95254.13;;;9.74;55.89
16793;BME280;8513;42.662;23.350;2024-02-28T03:16:52;95252.19;;;9.66;56.08
16793;BME280;8513;42.662;23.350;2024-02-28T03:19:19;95256.06;;;9.71;56.32
16793;BME280;8513;42.662;23.350;2024-02-28T03:21:44;95263.53;;;9.76;56.09
16793;BME280;8513;42.662;23.350;2024-02-28T03:24:10;95266.00;;;9.78;56.04
16793;BME280;8513;42.662;23.350;2024-02-28T03:26:35;95268.38;;;9.52;57.09
16793;BME280;8513;42.662;23.350;2024-02-28T03:29:00;95267.94;;;9.66;56.35
16793;BME280;8513;42.662;23.350;2024-02-28T03:31:26;95266.72;;;9.60;56.49
16793;BME280;8513;42.662;23.350;2024-02-28T03:33:52;95261.88;;;9.46;57.13
16793;BME280;8513;42.662;23.350;2024-02-28T03:36:17;95265.31;;;9.56;57.03
16793;BME280;8513;42.662;23.350;2024-02-28T03:38:43;95273.47;;;9.63;56.79
16793;BME280;8513;42.662;23.350;2024-02-28T03:41:08;95281.06;;;9.56;57.17
16793;BME280;8513;42.662;23.350;2024-02-28T03:43:34;95276.66;;;9.66;57.12
16793;BME280;8513;42.662;23.350;2024-02-28T03:45:59;95277.75;;;9.64;57.33
16793;BME280;8513;42.662;23.350;2024-02-28T03:48:25;95279.44;;;9.55;57.67
16793;BME280;8513;42.662;23.350;2024-02-28T03:50:50;95273.19;;;9.56;57.57
16793;BME280;8513;42.662;23.350;2024-02-28T03:53:16;95278.44;;;9.56;57.76
16793;BME280;8513;42.662;23.350;2024-02-28T03:55:41;95280.81;;;9.49;57.57
16793;BME280;8513;42.662;23.350;2024-02-28T03:58:09;95280.53;;;9.43;58.13
16793;BME280;8513;42.662;23.350;2024-02-28T04:00:34;95278.03;;;9.51;58.08
16793;BME280;8513;42.662;23.350;2024-02-28T04:03:00;95273.75;;;9.50;57.81
16793;BME280;8513;42.662;23.350;2024-02-28T04:05:26;95274.44;;;9.42;58.11
16793;BME280;8513;42.662;23.350;2024-02-28T04:07:51;95272.53;;;9.44;57.94
16793;BME280;8513;42.662;23.350;2024-02-28T04:10:17;95271.00;;;9.42;58.35
16793;BME280;8513;42.662;23.350;2024-02-28T04:12:43;95270.19;;;9.41;58.46
16793;BME280;8513;42.662;23.350;2024-02-28T04:15:11;95267.97;;;9.37;58.65
16793;BME280;8513;42.662;23.350;2024-02-28T04:17:37;95265.06;;;9.40;58.42
16793;BME280;8513;42.662;23.350;2024-02-28T04:20:03;95266.84;;;9.30;59.10
16793;BME280;8513;42.662;23.350;2024-02-28T04:22:30;95270.59;;;9.37;59.20
16793;BME280;8513;42.662;23.350;2024-02-28T04:24:57;95267.25;;;9.35;59.22
16793;BME280;8513;42.662;23.350;2024-02-28T04:27:22;95273.34;;;9.45;58.71
16793;BME280;8513;42.662;23.350;2024-02-28T04:29:48;95263.25;;;9.40;58.54
16793;BME280;8513;42.662;23.350;2024-02-28T04:32:13;95260.94;;;9.27;58.53
16793;BME280;8513;42.662;23.350;2024-02-28T04:34:38;95267.25;;;9.15;59.00
16793;BME280;8513;42.662;23.350;2024-02-28T04:37:04;95265.47;;;9.25;58.80
16793;BME280;8513;42.662;23.350;2024-02-28T04:39:29;95271.69;;;9.34;58.54
16793;BME280;8513;42.662;23.350;2024-02-28T04:41:55;95268.81;;;9.27;58.90
16793;BME280;8513;42.662;23.350;2024-02-28T04:44:20;95272.38;;;9.26;58.64
16793;BME280;8513;42.662;23.350;2024-02-28T04:46:45;95278.44;;;9.27;58.29
16793;BME280;8513;42.662;23.350;2024-02-28T04:49:11;95275.56;;;9.20;58.70
16793;BME280;8513;42.662;23.350;2024-02-28T04:51:36;95280.94;;;9.28;59.07
16793;BME280;8513;42.662;23.350;2024-02-28T04:54:02;95273.69;;;8.72;59.56
16793;BME280;8513;42.662;23.350;2024-02-28T04:56:27;95276.72;;;8.77;59.94
16793;BME280;8513;42.662;23.350;2024-02-28T04:58:52;95278.13;;;8.91;59.21
16793;BME280;8513;42.662;23.350;2024-02-28T05:01:18;95276.19;;;8.83;59.77
16793;BME280;8513;42.662;23.350;2024-02-28T05:03:43;95282.13;;;8.86;60.34
16793;BME280;8513;42.662;23.350;2024-02-28T05:06:08;95276.22;;;8.93;60.57
16793;BME280;8513;42.662;23.350;2024-02-28T05:08:37;95287.28;;;9.07;60.27
16793;BME280;8513;42.662;23.350;2024-02-28T05:11:03;95290.16;;;9.13;59.93
16793;BME280;8513;42.662;23.350;2024-02-28T05:13:28;95299.03;;;9.12;60.06
16793;BME280;8513;42.662;23.350;2024-02-28T05:15:53;95298.88;;;9.14;60.29
16793;BME280;8513;42.662;23.350;2024-02-28T05:18:19;95296.94;;;9.16;60.38
16793;BME280;8513;42.662;23.350;2024-02-28T05:20:44;95284.38;;;9.19;60.07
16793;BME280;8513;42.662;23.350;2024-02-28T05:23:10;95304.00;;;9.15;60.21
16793;BME280;8513;42.662;23.350;2024-02-28T05:25:35;95307.03;;;9.20;60.41
16793;BME280;8513;42.662;23.350;2024-02-28T05:28:01;95311.41;;;9.00;61.31
16793;BME280;8513;42.662;23.350;2024-02-28T05:30:26;95311.91;;;8.84;61.62
16793;BME280;8513;42.662;23.350;2024-02-28T05:32:51;95312.06;;;8.83;62.00
16793;BME280;8513;42.662;23.350;2024-02-28T05:35:17;95322.59;;;8.93;61.62
16793;BME280;8513;42.662;23.350;2024-02-28T05:37:44;95320.53;;;8.96;61.60
16793;BME280;8513;42.662;23.350;2024-02-28T05:40:09;95327.72;;;9.04;61.51
16793;BME280;8513;42.662;23.350;2024-02-28T05:42:37;95328.31;;;9.17;61.24
16793;BME280;8513;42.662;23.350;2024-02-28T05:45:03;95334.50;;;9.07;61.31
16793;BME280;8513;42.662;23.350;2024-02-28T05:47:29;95340.09;;;8.82;61.24
16793;BME280;8513;42.662;23.350;2024-02-28T05:49:55;95338.56;;;8.90;60.14
16793;BME280;8513;42.662;23.350;2024-02-28T05:52:21;95334.19;;;8.59;61.08
16793;BME280;8513;42.662;23.350;2024-02-28T05:54:47;95341.78;;;8.93;60.33
16793;BME280;8513;42.662;23.350;2024-02-28T05:57:13;95344.91;;;8.77;60.58
16793;BME280;8513;42.662;23.350;2024-02-28T05:59:38;95348.25;;;8.89;60.48
16793;BME280;8513;42.662;23.350;2024-02-28T06:02:04;95352.75;;;8.77;60.74
16793;BME280;8513;42.662;23.350;2024-02-28T06:04:29;95361.28;;;9.10;60.26
16793;BME280;8513;42.662;23.350;2024-02-28T06:06:55;95357.94;;;8.98;60.24
16793;BME280;8513;42.662;23.350;2024-02-28T06:09:21;95352.72;;;9.08;59.97
16793;BME280;8513;42.662;23.350;2024-02-28T06:11:46;95354.13;;;9.22;59.49
16793;BME280;8513;42.662;23.350;2024-02-28T06:14:11;95351.09;;;9.26;59.54
16793;BME280;8513;42.662;23.350;2024-02-28T06:16:37;95351.22;;;9.15;59.73
16793;BME280;8513;42.662;23.350;2024-02-28T06:19:02;95361.28;;;9.10;59.69
16793;BME280;8513;42.662;23.350;2024-02-28T06:21:28;95362.28;;;9.28;59.28
16793;BME280;8513;42.662;23.350;2024-02-28T06:23:54;95366.56;;;9.30;59.47
16793;BME280;8513;42.662;23.350;2024-02-28T06:26:20;95367.53;;;9.28;60.51
16793;BME280;8513;42.662;23.350;2024-02-28T06:28:46;95356.34;;;9.46;60.01
16793;BME280;8513;42.662;23.350;2024-02-28T06:31:15;95363.84;;;9.60;59.22
16793;BME280;8513;42.662;23.350;2024-02-28T06:33:41;95375.34;;;9.79;58.87
16793;BME280;8513;42.662;23.350;2024-02-28T06:36:07;95371.59;;;9.91;58.33
16793;BME280;8513;42.662;23.350;2024-02-28T06:38:32;95365.50;;;10.00;57.62
16793;BME280;8513;42.662;23.350;2024-02-28T06:40:57;95364.81;;;10.08;57.28
16793;BME280;8513;42.662;23.350;2024-02-28T06:43:23;95373.78;;;10.15;57.08
16793;BME280;8513;42.662;23.350;2024-02-28T06:45:48;95371.72;;;10.19;56.87
16793;BME280;8513;42.662;23.350;2024-02-28T06:48:14;95370.16;;;10.26;56.62
16793;BME280;8513;42.662;23.350;2024-02-28T06:50:39;95374.91;;;10.32;56.47
16793;BME280;8513;42.662;23.350;2024-02-28T06:53:04;95369.91;;;10.29;56.62
16793;BME280;8513;42.662;23.350;2024-02-28T06:55:30;95371.56;;;10.20;56.84
16793;BME280;8513;42.662;23.350;2024-02-28T06:57:55;95371.31;;;10.33;56.46
16793;BME280;8513;42.662;23.350;2024-02-28T07:00:22;95372.94;;;10.44;56.33
16793;BME280;8513;42.662;23.350;2024-02-28T07:02:47;95370.44;;;10.42;56.62
16793;BME280;8513;42.662;23.350;2024-02-28T07:05:13;95370.75;;;10.20;57.34
16793;BME280;8513;42.662;23.350;2024-02-28T07:07:38;95375.69;;;10.42;56.99
16793;BME280;8513;42.662;23.350;2024-02-28T07:10:04;95375.69;;;10.52;56.92
16793;BME280;8513;42.662;23.350;2024-02-28T07:12:30;95381.06;;;10.50;56.96
16793;BME280;8513;42.662;23.350;2024-02-28T07:14:55;95376.63;;;10.60;56.83
16793;BME280;8513;42.662;23.350;2024-02-28T07:17:20;95371.53;;;10.49;57.18
16793;BME280;8513;42.662;23.350;2024-02-28T07:19:46;95370.69;;;10.58;56.85
16793;BME280;8513;42.662;23.350;2024-02-28T07:22:11;95367.44;;;10.74;57.10
16793;BME280;8513;42.662;23.350;2024-02-28T07:24:37;95379.31;;;10.41;57.73
16793;BME280;8513;42.662;23.350;2024-02-28T07:27:03;95366.16;;;10.41;58.03
16793;BME280;8513;42.662;23.350;2024-02-28T07:29:28;95369.84;;;10.58;57.62
16793;BME280;8513;42.662;23.350;2024-02-28T07:31:54;95373.44;;;10.67;57.34
16793;BME280;8513;42.662;23.350;2024-02-28T07:34:19;95371.81;;;10.93;56.89
16793;BME280;8513;42.662;23.350;2024-02-28T07:36:44;95370.00;;;10.94;56.75
16793;BME280;8513;42.662;23.350;2024-02-28T07:39:10;95376.88;;;11.04;56.62
16793;BME280;8513;42.662;23.350;2024-02-28T07:41:38;95376.00;;;11.14;56.55
16793;BME280;8513;42.662;23.350;2024-02-28T07:44:04;95370.13;;;11.20;56.61
16793;BME280;8513;42.662;23.350;2024-02-28T07:46:29;95370.91;;;11.30;56.32
16793;BME280;8513;42.662;23.350;2024-02-28T07:48:54;95367.81;;;11.44;55.97
16793;BME280;8513;42.662;23.350;2024-02-28T07:51:20;95372.25;;;11.62;55.36
16793;BME280;8513;42.662;23.350;2024-02-28T07:53:45;95371.38;;;11.71;55.28
16793;BME280;8513;42.662;23.350;2024-02-28T07:56:18;95360.44;;;11.66;55.24
16793;BME280;8513;42.662;23.350;2024-02-28T07:58:44;95363.22;;;11.82;55.01
16793;BME280;8513;42.662;23.350;2024-02-28T08:01:10;95372.81;;;12.01;55.20
16793;BME280;8513;42.662;23.350;2024-02-28T08:03:36;95369.31;;;12.19;54.55
16793;BME280;8513;42.662;23.350;2024-02-28T08:06:01;95368.91;;;12.31;53.64
16793;BME280;8513;42.662;23.350;2024-02-28T08:08:27;95361.19;;;12.30;53.87
16793;BME280;8513;42.662;23.350;2024-02-28T08:10:52;95362.88;;;12.39;53.21
16793;BME280;8513;42.662;23.350;2024-02-28T08:13:18;95364.44;;;12.50;52.78
16793;BME280;8513;42.662;23.350;2024-02-28T08:15:44;95361.16;;;12.56;52.51
16793;BME280;8513;42.662;23.350;2024-02-28T08:18:09;95353.16;;;12.66;51.81
16793;BME280;8513;42.662;23.350;2024-02-28T08:20:37;95358.69;;;12.80;51.57
16793;BME280;8513;42.662;23.350;2024-02-28T08:23:03;95364.84;;;12.89;51.40
16793;BME280;8513;42.662;23.350;2024-02-28T08:25:28;95366.13;;;12.85;51.38
16793;BME280;8513;42.662;23.350;2024-02-28T08:27:54;95368.41;;;12.80;52.15
16793;BME280;8513;42.662;23.350;2024-02-28T08:30:19;95362.69;;;12.93;51.80
16793;BME280;8513;42.662;23.350;2024-02-28T08:32:45;95359.41;;;12.99;51.59
16793;BME280;8513;42.662;23.350;2024-02-28T08:35:10;95350.59;;;13.16;51.18
16793;BME280;8513;42.662;23.350;2024-02-28T08:37:38;95353.31;;;13.33;50.62
16793;BME280;8513;42.662;23.350;2024-02-28T08:40:04;95356.91;;;13.23;50.23
16793;BME280;8513;42.662;23.350;2024-02-28T08:42:30;95349.53;;;13.35;50.37
16793;BME280;8513;42.662;23.350;2024-02-28T08:44:56;95347.59;;;13.54;50.11
16793;BME280;8513;42.662;23.350;2024-02-28T08:47:24;95346.47;;;13.56;49.75
16793;BME280;8513;42.662;23.350;2024-02-28T08:49:51;95341.41;;;13.87;48.44
16793;BME280;8513;42.662;23.350;2024-02-28T08:52:16;95340.81;;;13.51;49.38
16793;BME280;8513;42.662;23.350;2024-02-28T08:54:42;95345.97;;;13.53;49.30
16793;BME280;8513;42.662;23.350;2024-02-28T08:57:07;95335.44;;;13.77;49.00
16793;BME280;8513;42.662;23.350;2024-02-28T08:59:32;95332.94;;;13.67;49.20
16793;BME280;8513;42.662;23.350;2024-02-28T09:01:58;95339.56;;;13.80;49.04
16793;BME280;8513;42.662;23.350;2024-02-28T09:04:26;95343.84;;;13.81;48.79
16793;BME280;8513;42.662;23.350;2024-02-28T09:06:52;95343.53;;;13.92;48.64
16793;BME280;8513;42.662;23.350;2024-02-28T09:09:20;95347.84;;;13.93;48.28
16793;BME280;8513;42.662;23.350;2024-02-28T09:11:45;95336.38;;;13.68;48.89
16793;BME280;8513;42.662;23.350;2024-02-28T09:14:11;95334.25;;;13.63;49.12
16793;BME280;8513;42.662;23.350;2024-02-28T09:16:36;95346.13;;;13.67;49.37
16793;BME280;8513;42.662;23.350;2024-02-28T09:19:03;95343.69;;;13.90;48.61
16793;BME280;8513;42.662;23.350;2024-02-28T09:21:31;95349.47;;;13.94;48.41
16793;BME280;8513;42.662;23.350;2024-02-28T09:23:57;95338.41;;;14.07;47.99
16793;BME280;8513;42.662;23.350;2024-02-28T09:26:22;95346.34;;;14.31;47.83
16793;BME280;8513;42.662;23.350;2024-02-28T09:28:48;95336.41;;;14.42;47.63
16793;BME280;8513;42.662;23.350;2024-02-28T09:31:13;95344.03;;;14.28;47.90
16793;BME280;8513;42.662;23.350;2024-02-28T09:33:41;95335.75;;;14.56;47.49
16793;BME280;8513;42.662;23.350;2024-02-28T09:36:06;95330.09;;;14.75;47.18
16793;BME280;8513;42.662;23.350;2024-02-28T09:38:32;95327.19;;;15.02;46.18
16793;BME280;8513;42.662;23.350;2024-02-28T09:41:00;95330.97;;;14.60;46.61
16793;BME280;8513;42.662;23.350;2024-02-28T09:43:32;95327.75;;;14.81;46.14
16793;BME280;8513;42.662;23.350;2024-02-28T09:46:05;95325.34;;;15.02;45.43
16793;BME280;8513;42.662;23.350;2024-02-28T09:48:31;95315.03;;;14.76;45.62
16793;BME280;8513;42.662;23.350;2024-02-28T09:50:57;95319.06;;;15.03;45.57
16793;BME280;8513;42.662;23.350;2024-02-28T09:53:23;95310.00;;;15.29;45.48
16793;BME280;8513;42.662;23.350;2024-02-28T09:55:50;95312.59;;;15.45;44.56
16793;BME280;8513;42.662;23.350;2024-02-28T09:58:15;95310.09;;;15.43;44.65
16793;BME280;8513;42.662;23.350;2024-02-28T10:00:43;95308.06;;;15.54;44.21
16793;BME280;8513;42.662;23.350;2024-02-28T10:03:12;95301.28;;;15.51;44.46
16793;BME280;8513;42.662;23.350;2024-02-28T10:05:38;95311.41;;;15.48;44.35
16793;BME280;8513;42.662;23.350;2024-02-28T10:08:05;95314.03;;;15.56;43.76
16793;BME280;8513;42.662;23.350;2024-02-28T10:10:31;95309.41;;;15.50;43.67
16793;BME280;8513;42.662;23.350;2024-02-28T10:12:57;95310.63;;;15.39;43.84
16793;BME280;8513;42.662;23.350;2024-02-28T10:15:26;95306.19;;;15.31;43.81
16793;BME280;8513;42.662;23.350;2024-02-28T10:17:51;95305.09;;;15.49;43.78
16793;BME280;8513;42.662;23.350;2024-02-28T10:20:17;95300.16;;;15.46;44.10
16793;BME280;8513;42.662;23.350;2024-02-28T10:22:42;95297.91;;;15.34;44.11
16793;BME280;8513;42.662;23.350;2024-02-28T10:25:08;95293.53;;;15.41;43.76
16793;BME280;8513;42.662;23.350;2024-02-28T10:27:34;95288.25;;;15.41;43.73
16793;BME280;8513;42.662;23.350;2024-02-28T10:30:00;95287.50;;;15.56;43.51
16793;BME280;8513;42.662;23.350;2024-02-28T10:32:30;95284.81;;;15.64;43.39
16793;BME280;8513;42.662;23.350;2024-02-28T10:34:55;95274.94;;;15.81;42.67
16793;BME280;8513;42.662;23.350;2024-02-28T10:37:23;95277.00;;;15.62;43.19
16793;BME280;8513;42.662;23.350;2024-02-28T10:39:51;95273.03;;;15.66;43.03
16793;BME280;8513;42.662;23.350;2024-02-28T10:42:18;95269.34;;;15.76;42.88
16793;BME280;8513;42.662;23.350;2024-02-28T10:44:44;95264.84;;;15.99;41.87
16793;BME280;8513;42.662;23.350;2024-02-28T10:47:10;95262.34;;;15.98;41.68
16793;BME280;8513;42.662;23.350;2024-02-28T10:49:36;95262.34;;;15.98;41.06
16793;BME280;8513;42.662;23.350;2024-02-28T10:52:03;95261.38;;;15.99;41.09
16793;BME280;8513;42.662;23.350;2024-02-28T10:54:29;95261.91;;;16.09;40.33
16793;BME280;8513;42.662;23.350;2024-02-28T10:56:57;95250.25;;;16.18;39.58
16793;BME280;8513;42.662;23.350;2024-02-28T10:59:25;95247.25;;;16.36;39.48
16793;BME280;8513;42.662;23.350;2024-02-28T11:01:50;95254.78;;;16.77;38.56
16793;BME280;8513;42.662;23.350;2024-02-28T11:04:17;95242.75;;;16.96;37.40
16793;BME280;8513;42.662;23.350;2024-02-28T11:06:54;95241.47;;;17.07;37.77
16793;BME280;8513;42.662;23.350;2024-02-28T11:09:21;95247.53;;;17.37;37.18
16793;BME280;8513;42.662;23.350;2024-02-28T11:11:49;95233.25;;;17.59;36.69
16793;BME280;8513;42.662;23.350;2024-02-28T11:14:15;95235.78;;;17.89;36.58
16793;BME280;8513;42.662;23.350;2024-02-28T11:16:41;95242.69;;;18.05;35.76
16793;BME280;8513;42.662;23.350;2024-02-28T11:19:19;95230.38;;;18.04;35.77
16793;BME280;8513;42.662;23.350;2024-02-28T11:21:54;95229.28;;;18.20;36.16
16793;BME280;8513;42.662;23.350;2024-02-28T11:24:24;95217.09;;;18.32;36.63
16793;BME280;8513;42.662;23.350;2024-02-28T11:26:52;95220.88;;;18.44;36.32
16793;BME280;8513;42.662;23.350;2024-02-28T11:29:22;95207.81;;;18.56;36.29
16793;BME280;8513;42.662;23.350;2024-02-28T11:31:48;95207.81;;;18.63;35.98
16793;BME280;8513;42.662;23.350;2024-02-28T11:34:13;95205.00;;;18.71;35.40
16793;BME280;8513;42.662;23.350;2024-02-28T11:36:40;95207.47;;;18.72;35.69
16793;BME280;8513;42.662;23.350;2024-02-28T11:39:06;95210.13;;;18.66;35.34
16793;BME280;8513;42.662;23.350;2024-02-28T11:41:31;95212.38;;;18.69;35.13
16793;BME280;8513;42.662;23.350;2024-02-28T11:43:57;95200.81;;;18.83;34.91
16793;BME280;8513;42.662;23.350;2024-02-28T11:46:23;95190.69;;;18.72;34.40
16793;BME280;8513;42.662;23.350;2024-02-28T11:48:49;95192.53;;;18.71;34.48
16793;BME280;8513;42.662;23.350;2024-02-28T11:51:14;95194.16;;;18.72;34.93
16793;BME280;8513;42.662;23.350;2024-02-28T11:53:40;95196.16;;;18.99;35.89
16793;BME280;8513;42.662;23.350;2024-02-28T11:56:06;95192.03;;;18.96;34.77
16793;BME280;8513;42.662;23.350;2024-02-28T11:58:33;95186.53;;;19.11;34.48
16793;BME280;8513;42.662;23.350;2024-02-28T12:00:58;95189.22;;;19.11;34.78
16793;BME280;8513;42.662;23.350;2024-02-28T12:03:24;95194.16;;;19.14;34.53
16793;BME280;8513;42.662;23.350;2024-02-28T12:05:51;95181.84;;;19.13;34.12
16793;BME280;8513;42.662;23.350;2024-02-28T12:08:17;95182.13;;;19.58;32.91
16793;BME280;8513;42.662;23.350;2024-02-28T12:10:44;95183.19;;;19.57;32.63
16793;BME280;8513;42.662;23.350;2024-02-28T12:13:09;95179.50;;;19.71;32.14
16793;BME280;8513;42.662;23.350;2024-02-28T12:15:36;95173.97;;;19.66;31.34
16793;BME280;8513;42.662;23.350;2024-02-28T12:18:08;95168.81;;;19.51;31.55
16793;BME280;8513;42.662;23.350;2024-02-28T12:20:34;95167.97;;;19.51;32.66
16793;BME280;8513;42.662;23.350;2024-02-28T12:23:00;95161.47;;;19.73;32.59
16793;BME280;8513;42.662;23.350;2024-02-28T12:25:25;95164.94;;;19.94;32.15
16793;BME280;8513;42.662;23.350;2024-02-28T12:27:50;95155.91;;;19.95;32.01
16793;BME280;8513;42.662;23.350;2024-02-28T12:30:16;95153.84;;;19.90;31.88
16793;BME280;8513;42.662;23.350;2024-02-28T12:32:41;95153.03;;;20.03;33.15
16793;BME280;8513;42.662;23.350;2024-02-28T12:35:07;95160.22;;;20.02;33.18
16793;BME280;8513;42.662;23.350;2024-02-28T12:37:32;95155.72;;;20.03;33.62
16793;BME280;8513;42.662;23.350;2024-02-28T12:39:58;95159.41;;;19.82;34.00
16793;BME280;8513;42.662;23.350;2024-02-28T12:42:23;95157.13;;;19.86;33.95
16793;BME280;8513;42.662;23.350;2024-02-28T12:44:49;95147.91;;;19.68;34.34
16793;BME280;8513;42.662;23.350;2024-02-28T12:47:14;95145.81;;;20.17;33.27
16793;BME280;8513;42.662;23.350;2024-02-28T12:49:40;95141.38;;;20.76;32.52
16793;BME280;8513;42.662;23.350;2024-02-28T12:52:06;95146.84;;;21.64;31.05
16793;BME280;8513;42.662;23.350;2024-02-28T12:54:32;95148.25;;;21.73;30.77
16793;BME280;8513;42.662;23.350;2024-02-28T12:56:57;95146.84;;;21.39;31.23